Iola, WI (54945)

9:07 AM CDT on July 30, 2016 (GMT -0500)
WB9GBG | | Change Station

Elev 1027 ft 44.51 °N, 89.14 °W | Updated 13 seconds ago

Overcast
Overcast
68.5 °F
Feels Like 68.5 °F
N
1.6
Wind Variable Wind from NE
Gusts 2.2 mph

Today
High -- | Low -- °F
--% Chance of Precip.
Yesterday
High -- | Low -- °F
Precip. -- in
Pressure 30.07 in
Visibility 10.0 miles
Clouds Overcast 7000 ft
Dew Point 64 °F
Humidity 85%
Rainfall 0.00 in
Snow Depth Not available.
5:41 AM 8:23 PM
Waning Crescent, 13% visible
METAR KPCZ 301355Z AUTO 00000KT 10SM OVC070 20/17 A3007 RMK AO2 T01970173
Pressure 30.07 in
Visibility 10.0 miles
Clouds Overcast 7000 ft
Dew Point 64 °F
Humidity 85%
Rainfall 0.00 in
Snow Depth Not available.
5:41 AM 8:23 PM
Waning Crescent, 13% visible
METAR KPCZ 301355Z AUTO 00000KT 10SM OVC070 20/17 A3007 RMK AO2 T01970173

10-Day Weather Forecast

Almanac

Astronomy

Jul. 30, 2016 Rise Set
Actual Time
Civil Twilight
Nautical Twilight
Astronomical Twilight
Moon
Length of Visible Light
Length of Day
Tomorrow will be .
, % of the Moon is Illuminated

Today's Extremes

State Highs State Lows

Community

WunderPhotos

Upload Photos

1,928,564 photos uploaded!

WunderBlog® & News

Nearby

Air Quality

  Air Quality AQ Index Pollutant
Not available.

Snow Depth

Station Depth Elevation

Earthquake Activity

City Distance Mag. Time & Date
Minimum magnitude displayed is 2.5.

Coastal Water Temperatures

Place Temperature

Stations

Nearby Weather Stations

Station Location Temp. Windchill Dew Point Humidity Wind Precip. Elev Updated Type
                   

Watches & Warnings

There are currently no watches in effect.